Wetterstation Tischlerei-Herzog
Wetterdaten: aktuell Donnerstag, 21.11.2019 13:38
Datum Zeit Temp. N Temp. S Temp. Htte Aussentemp. Temp. Bo Feuchte Htt Luftfeuchte Luftdruck Niederschl. Taupunkt empf. Temp.
21.11.2019 13:38 4,8 C 5,2 C 5,6 C 4,8 C 3,3 C 57 % 84 % 1005,7 hPa 0,0 l/m 2,3 C 0,6 C
21.11.2019 12:38 5,2 C 5,3 C 5,5 C 5,2 C 3,2 C 59 % 89 % 1006,6 hPa 0,0 l/m 3,5 C 1,2 C
21.11.2019 11:38 4,4 C 4,6 C 5,0 C 4,4 C 3,1 C 62 % 91 % 1006,8 hPa 0,0 l/m 3,1 C 0,1 C
21.11.2019 10:38 4,0 C 4,1 C 4,5 C 4,0 C 3,0 C 63 % 91 % 1007,9 hPa 0,0 l/m 2,7 C -0,4 C
21.11.2019 09:38 3,5 C 3,7 C 4,1 C 3,5 C 3,0 C 62 % 92 % 1008,0 hPa 0,0 l/m 2,3 C -1,0 C
21.11.2019 08:38 3,3 C 3,5 C 3,8 C 3,3 C 3,0 C 63 % 92 % 1008,0 hPa 0,0 l/m 2,1 C -1,3 C
21.11.2019 07:38 3,0 C 3,3 C 3,7 C 3,0 C 3,0 C 62 % 92 % 1008,0 hPa 0,0 l/m 1,8 C -1,6 C
21.11.2019 06:38 2,9 C 3,3 C 3,6 C 2,9 C 3,0 C 62 % 91 % 1008,1 hPa 0,0 l/m 1,6 C -1,8 C
21.11.2019 05:38 2,8 C 3,2 C 3,5 C 2,8 C 3,1 C 62 % 91 % 1009,1 hPa 0,0 l/m 1,5 C -1,9 C
21.11.2019 04:38 2,8 C 3,1 C 3,5 C 2,8 C 3,1 C 61 % 91 % 1009,1 hPa 0,0 l/m 1,5 C -1,9 C
21.11.2019 03:38 2,8 C 3,1 C 3,5 C 2,8 C 3,3 C 61 % 91 % 1009,1 hPa 0,0 l/m 1,5 C -1,9 C
21.11.2019 02:38 2,9 C 3,2 C 3,5 C 2,9 C 3,4 C 61 % 90 % 1010,2 hPa 0,0 l/m 1,4 C -1,8 C
21.11.2019 01:38 2,9 C 3,2 C 3,5 C 2,9 C 3,4 C 60 % 90 % 1010,2 hPa 0,0 l/m 1,4 C -1,8 C
21.11.2019 00:38 2,8 C 3,2 C 3,4 C 2,8 C 3,5 C 60 % 90 % 1010,2 hPa 0,3 l/m 1,3 C -1,9 C
20.11.2019 23:38 2,7 C 3,1 C 3,3 C 2,7 C 3,6 C 60 % 91 % 1011,2 hPa 0,0 l/m 1,4 C -2,0 C
20.11.2019 22:28 2,7 C 3,0 C 3,2 C 2,7 C 3,6 C 59 % 91 % 1012,3 hPa 0,0 l/m 1,4 C -2,0 C
20.11.2019 21:28 2,6 C 2,9 C 3,2 C 2,6 C 3,7 C 58 % 91 % 1012,3 hPa 0,0 l/m 1,3 C -2,1 C
20.11.2019 20:28 2,6 C 2,9 C 3,2 C 2,6 C 3,7 C 57 % 91 % 1012,3 hPa 0,0 l/m 1,3 C -2,1 C
20.11.2019 19:28 2,6 C 2,9 C 3,2 C 2,6 C 3,8 C 56 % 91 % 1012,3 hPa 0,0 l/m 1,3 C -2,1 C
20.11.2019 18:28 2,6 C 2,9 C 3,2 C 2,6 C 3,8 C 55 % 91 % 1012,3 hPa 0,0 l/m 1,3 C -2,1 C
20.11.2019 17:28 2,6 C 2,9 C 3,1 C 2,6 C 3,8 C 53 % 89 % 1012,3 hPa 0,0 l/m 1,0 C -2,1 C
20.11.2019 16:28 2,6 C 2,9 C 3,2 C 2,6 C 3,9 C 51 % 84 % 1013,3 hPa 0,0 l/m 0,2 C -2,1 C
20.11.2019 15:28 2,8 C 3,0 C 3,3 C 2,8 C 3,9 C 47 % 65 % 1013,3 hPa 0,0 l/m -3,1 C -1,9 C
20.11.2019 14:28 2,8 C 3,1 C 3,4 C 2,8 C 3,8 C 41 % 61 % 1013,3 hPa 0,0 l/m -4,0 C -1,9 C
20.11.2019 14:03 3,0 C 3,5 C 3,5 C 3,0 C 3,8 C 39 % 60 % 1013,3 hPa 0,0 l/m -4,0 C -1,6 C
_ Min-Zeit 16:13 16:38 17:03 16:13 06:28 14:03 14:03 13:28 - 14:23 16:13
Minimum _ 2,6 C 2,8 C 3,1 C 2,6 C 3,0 C 39 % 60 % 1005,6 hPa - -4,1 C -2,1 C
_ Max-Zeit 12:33 13:13 12:43 12:23 15:13 08:18 07:18 16:13 23:48 12:23 12:23
Maximum _ 5,5 C 5,4 C 5,6 C 5,3 C 3,9 C 63 % 92 % 1013,3 hPa 0,3 l/m 3,6 C 1,3 C
Durchschnitt _ 3,1 C 3,4 C 3,6 C 3,1 C 3,5 C 57 % 86 % 1010,4 hPa #0,3 l/m 0,9 C -1,5 C
Tischlerei Herzog